sensor_id;sensor_type;location;lat;lon;timestamp;temperature;humidity
13982;DHT22;7065;50.880;5.502;2022-11-04T00:01:53;9.80;99.90
13982;DHT22;7065;50.880;5.502;2022-11-04T00:04:21;9.70;99.90
13982;DHT22;7065;50.880;5.502;2022-11-04T00:06:47;9.70;99.90
13982;DHT22;7065;50.880;5.502;2022-11-04T00:09:19;9.70;99.90
13982;DHT22;7065;50.880;5.502;2022-11-04T00:11:45;9.70;99.90
13982;DHT22;7065;50.880;5.502;2022-11-04T00:14:31;9.70;99.90
13982;DHT22;7065;50.880;5.502;2022-11-04T00:16:58;9.60;99.90
13982;DHT22;7065;50.880;5.502;2022-11-04T00:19:42;9.60;99.90
13982;DHT22;7065;50.880;5.502;2022-11-04T00:22:26;9.50;99.90
13982;DHT22;7065;50.880;5.502;2022-11-04T00:25:11;9.50;99.90
13982;DHT22;7065;50.880;5.502;2022-11-04T00:28:02;9.50;99.90
13982;DHT22;7065;50.880;5.502;2022-11-04T00:30:46;9.50;99.90
13982;DHT22;7065;50.880;5.502;2022-11-04T00:33:12;9.40;99.90
13982;DHT22;7065;50.880;5.502;2022-11-04T00:35:52;9.40;99.90
13982;DHT22;7065;50.880;5.502;2022-11-04T00:38:18;9.40;99.90
13982;DHT22;7065;50.880;5.502;2022-11-04T00:40:44;9.30;99.90
13982;DHT22;7065;50.880;5.502;2022-11-04T00:43:10;9.30;99.90
13982;DHT22;7065;50.880;5.502;2022-11-04T00:45:36;9.20;99.90
13982;DHT22;7065;50.880;5.502;2022-11-04T00:48:01;9.20;99.90
13982;DHT22;7065;50.880;5.502;2022-11-04T00:50:27;9.20;99.90
13982;DHT22;7065;50.880;5.502;2022-11-04T00:53:02;9.10;99.90
13982;DHT22;7065;50.880;5.502;2022-11-04T00:55:28;9.20;99.90
13982;DHT22;7065;50.880;5.502;2022-11-04T00:57:54;9.20;99.90
13982;DHT22;7065;50.880;5.502;2022-11-04T01:00:20;9.20;99.90
13982;DHT22;7065;50.880;5.502;2022-11-04T01:02:46;9.20;99.90
13982;DHT22;7065;50.880;5.502;2022-11-04T01:05:12;9.10;99.90
13982;DHT22;7065;50.880;5.502;2022-11-04T01:07:38;9.20;99.90
13982;DHT22;7065;50.880;5.502;2022-11-04T01:10:04;9.20;99.90
13982;DHT22;7065;50.880;5.502;2022-11-04T01:12:30;9.10;99.90
13982;DHT22;7065;50.880;5.502;2022-11-04T01:14:56;9.10;99.90
13982;DHT22;7065;50.880;5.502;2022-11-04T01:17:22;9.10;99.90
13982;DHT22;7065;50.880;5.502;2022-11-04T01:19:47;9.10;99.90
13982;DHT22;7065;50.880;5.502;2022-11-04T01:22:13;9.10;99.90
13982;DHT22;7065;50.880;5.502;2022-11-04T01:24:39;9.00;99.90
13982;DHT22;7065;50.880;5.502;2022-11-04T01:27:04;9.00;99.90
13982;DHT22;7065;50.880;5.502;2022-11-04T01:29:30;9.00;99.90
13982;DHT22;7065;50.880;5.502;2022-11-04T01:31:56;9.00;99.90
13982;DHT22;7065;50.880;5.502;2022-11-04T01:34:21;9.00;99.90
13982;DHT22;7065;50.880;5.502;2022-11-04T01:36:47;9.00;99.90
13982;DHT22;7065;50.880;5.502;2022-11-04T01:39:12;9.00;99.90
13982;DHT22;7065;50.880;5.502;2022-11-04T01:41:39;9.00;99.90
13982;DHT22;7065;50.880;5.502;2022-11-04T01:47:36;9.00;99.90
13982;DHT22;7065;50.880;5.502;2022-11-04T01:50:22;8.90;99.90
13982;DHT22;7065;50.880;5.502;2022-11-04T01:52:59;9.00;99.90
13982;DHT22;7065;50.880;5.502;2022-11-04T01:55:52;9.00;99.90
13982;DHT22;7065;50.880;5.502;2022-11-04T01:58:23;9.00;99.90
13982;DHT22;7065;50.880;5.502;2022-11-04T02:00:50;9.00;99.90
13982;DHT22;7065;50.880;5.502;2022-11-04T02:03:42;9.00;99.90
13982;DHT22;7065;50.880;5.502;2022-11-04T02:06:10;9.10;99.90
13982;DHT22;7065;50.880;5.502;2022-11-04T02:08:37;9.00;99.90
13982;DHT22;7065;50.880;5.502;2022-11-04T02:11:04;9.00;99.90
13982;DHT22;7065;50.880;5.502;2022-11-04T02:13:31;9.00;99.90
13982;DHT22;7065;50.880;5.502;2022-11-04T02:16:10;9.00;99.90
13982;DHT22;7065;50.880;5.502;2022-11-04T02:32:26;9.00;99.90
13982;DHT22;7065;50.880;5.502;2022-11-04T02:40:04;8.90;99.90
13982;DHT22;7065;50.880;5.502;2022-11-04T02:42:40;8.90;99.90
13982;DHT22;7065;50.880;5.502;2022-11-04T02:48:24;8.80;99.90
13982;DHT22;7065;50.880;5.502;2022-11-04T02:51:08;8.70;99.90
13982;DHT22;7065;50.880;5.502;2022-11-04T02:53:43;8.70;99.90
13982;DHT22;7065;50.880;5.502;2022-11-04T02:56:12;8.70;99.90
13982;DHT22;7065;50.880;5.502;2022-11-04T02:58:44;8.60;99.90
13982;DHT22;7065;50.880;5.502;2022-11-04T03:01:14;8.70;99.90
13982;DHT22;7065;50.880;5.502;2022-11-04T03:03:46;8.70;99.90
13982;DHT22;7065;50.880;5.502;2022-11-04T03:06:15;8.70;99.90
13982;DHT22;7065;50.880;5.502;2022-11-04T03:08:47;8.70;99.90
13982;DHT22;7065;50.880;5.502;2022-11-04T03:11:18;8.70;99.90
13982;DHT22;7065;50.880;5.502;2022-11-04T03:16:29;8.60;99.90
13982;DHT22;7065;50.880;5.502;2022-11-04T03:18:59;8.60;99.90
13982;DHT22;7065;50.880;5.502;2022-11-04T03:21:27;8.50;99.90
13982;DHT22;7065;50.880;5.502;2022-11-04T03:23:56;8.50;99.90
13982;DHT22;7065;50.880;5.502;2022-11-04T03:26:23;8.40;99.90
13982;DHT22;7065;50.880;5.502;2022-11-04T03:31:59;8.30;99.90
13982;DHT22;7065;50.880;5.502;2022-11-04T03:34:26;8.20;99.90
13982;DHT22;7065;50.880;5.502;2022-11-04T03:36:52;8.20;99.90
13982;DHT22;7065;50.880;5.502;2022-11-04T03:39:18;8.10;99.90
13982;DHT22;7065;50.880;5.502;2022-11-04T03:41:54;8.20;99.90
13982;DHT22;7065;50.880;5.502;2022-11-04T03:44:21;8.20;99.90
13982;DHT22;7065;50.880;5.502;2022-11-04T03:46:47;8.20;99.90
13982;DHT22;7065;50.880;5.502;2022-11-04T03:49:13;8.20;99.90
13982;DHT22;7065;50.880;5.502;2022-11-04T03:51:39;8.20;99.90
13982;DHT22;7065;50.880;5.502;2022-11-04T03:54:05;8.10;99.90
13982;DHT22;7065;50.880;5.502;2022-11-04T04:01:58;8.10;99.90
13982;DHT22;7065;50.880;5.502;2022-11-04T04:07:26;8.00;99.90
13982;DHT22;7065;50.880;5.502;2022-11-04T04:10:06;8.00;99.90
13982;DHT22;7065;50.880;5.502;2022-11-04T04:12:58;8.00;99.90
13982;DHT22;7065;50.880;5.502;2022-11-04T04:15:34;7.90;99.90
13982;DHT22;7065;50.880;5.502;2022-11-04T04:18:05;7.90;99.90
13982;DHT22;7065;50.880;5.502;2022-11-04T04:20:37;7.80;99.90
13982;DHT22;7065;50.880;5.502;2022-11-04T04:23:10;7.80;99.90
13982;DHT22;7065;50.880;5.502;2022-11-04T04:25:59;7.70;99.90
13982;DHT22;7065;50.880;5.502;2022-11-04T04:28:46;7.70;99.90
13982;DHT22;7065;50.880;5.502;2022-11-04T04:31:14;7.70;99.90
13982;DHT22;7065;50.880;5.502;2022-11-04T04:34:01;7.60;99.90
13982;DHT22;7065;50.880;5.502;2022-11-04T04:36:27;7.60;99.90
13982;DHT22;7065;50.880;5.502;2022-11-04T04:38:54;7.50;99.90
13982;DHT22;7065;50.880;5.502;2022-11-04T04:41:39;7.50;99.90
13982;DHT22;7065;50.880;5.502;2022-11-04T04:44:25;7.50;99.90
13982;DHT22;7065;50.880;5.502;2022-11-04T04:47:15;7.50;99.90
13982;DHT22;7065;50.880;5.502;2022-11-04T04:49:58;7.50;99.90
13982;DHT22;7065;50.880;5.502;2022-11-04T04:52:27;7.50;99.90
13982;DHT22;7065;50.880;5.502;2022-11-04T04:54:54;7.50;99.90
13982;DHT22;7065;50.880;5.502;2022-11-04T04:57:20;7.40;99.90
13982;DHT22;7065;50.880;5.502;2022-11-04T04:59:45;7.50;99.90
13982;DHT22;7065;50.880;5.502;2022-11-04T05:02:12;7.40;99.90
13982;DHT22;7065;50.880;5.502;2022-11-04T05:04:37;7.40;99.90
13982;DHT22;7065;50.880;5.502;2022-11-04T05:07:03;7.40;99.90
13982;DHT22;7065;50.880;5.502;2022-11-04T05:09:31;7.50;99.90
13982;DHT22;7065;50.880;5.502;2022-11-04T05:11:56;7.50;99.90
13982;DHT22;7065;50.880;5.502;2022-11-04T05:14:23;7.60;99.90
13982;DHT22;7065;50.880;5.502;2022-11-04T05:16:48;7.70;99.90
13982;DHT22;7065;50.880;5.502;2022-11-04T05:19:14;7.70;99.90
13982;DHT22;7065;50.880;5.502;2022-11-04T05:21:40;7.70;99.90
13982;DHT22;7065;50.880;5.502;2022-11-04T05:24:05;7.80;99.90
13982;DHT22;7065;50.880;5.502;2022-11-04T05:26:31;7.80;99.90
13982;DHT22;7065;50.880;5.502;2022-11-04T05:28:57;7.90;99.90
13982;DHT22;7065;50.880;5.502;2022-11-04T05:31:23;8.00;99.90
13982;DHT22;7065;50.880;5.502;2022-11-04T05:33:49;8.00;99.90
13982;DHT22;7065;50.880;5.502;2022-11-04T05:36:15;8.10;99.90
13982;DHT22;7065;50.880;5.502;2022-11-04T05:38:42;8.10;99.90
13982;DHT22;7065;50.880;5.502;2022-11-04T05:41:10;8.20;99.90
13982;DHT22;7065;50.880;5.502;2022-11-04T05:43:37;8.20;99.90
13982;DHT22;7065;50.880;5.502;2022-11-04T05:46:02;8.20;99.90
13982;DHT22;7065;50.880;5.502;2022-11-04T05:48:29;8.30;99.90
13982;DHT22;7065;50.880;5.502;2022-11-04T05:50:55;8.30;99.90
13982;DHT22;7065;50.880;5.502;2022-11-04T05:53:21;8.30;99.90
13982;DHT22;7065;50.880;5.502;2022-11-04T05:55:47;8.30;99.90
13982;DHT22;7065;50.880;5.502;2022-11-04T05:58:13;8.40;99.90
13982;DHT22;7065;50.880;5.502;2022-11-04T06:00:38;8.40;99.90
13982;DHT22;7065;50.880;5.502;2022-11-04T06:03:04;8.50;99.90
13982;DHT22;7065;50.880;5.502;2022-11-04T06:05:30;8.50;99.90
13982;DHT22;7065;50.880;5.502;2022-11-04T06:07:56;8.50;99.90
13982;DHT22;7065;50.880;5.502;2022-11-04T06:10:22;8.50;99.90
13982;DHT22;7065;50.880;5.502;2022-11-04T06:12:48;8.50;99.90
13982;DHT22;7065;50.880;5.502;2022-11-04T06:15:14;8.50;99.90
13982;DHT22;7065;50.880;5.502;2022-11-04T06:17:39;8.50;99.90
13982;DHT22;7065;50.880;5.502;2022-11-04T06:20:05;8.50;99.90
13982;DHT22;7065;50.880;5.502;2022-11-04T06:22:31;8.50;99.90
13982;DHT22;7065;50.880;5.502;2022-11-04T06:24:57;8.50;99.90
13982;DHT22;7065;50.880;5.502;2022-11-04T06:27:23;8.50;99.90
13982;DHT22;7065;50.880;5.502;2022-11-04T06:29:48;8.50;99.90
13982;DHT22;7065;50.880;5.502;2022-11-04T06:32:16;8.50;99.90
13982;DHT22;7065;50.880;5.502;2022-11-04T06:34:43;8.60;99.90
13982;DHT22;7065;50.880;5.502;2022-11-04T06:37:09;8.70;99.90
13982;DHT22;7065;50.880;5.502;2022-11-04T06:39:35;8.80;99.90
13982;DHT22;7065;50.880;5.502;2022-11-04T06:42:02;8.80;99.90
13982;DHT22;7065;50.880;5.502;2022-11-04T06:44:28;8.80;99.90
13982;DHT22;7065;50.880;5.502;2022-11-04T06:46:53;8.80;99.90
13982;DHT22;7065;50.880;5.502;2022-11-04T06:49:20;8.80;99.90
13982;DHT22;7065;50.880;5.502;2022-11-04T06:51:48;8.90;99.90
13982;DHT22;7065;50.880;5.502;2022-11-04T06:54:15;8.90;99.90
13982;DHT22;7065;50.880;5.502;2022-11-04T06:56:41;9.00;99.90
13982;DHT22;7065;50.880;5.502;2022-11-04T06:59:07;9.00;99.90
13982;DHT22;7065;50.880;5.502;2022-11-04T07:01:35;9.00;99.90
13982;DHT22;7065;50.880;5.502;2022-11-04T07:04:02;9.10;99.90
13982;DHT22;7065;50.880;5.502;2022-11-04T07:06:29;9.10;99.90
13982;DHT22;7065;50.880;5.502;2022-11-04T07:08:57;9.10;99.90
13982;DHT22;7065;50.880;5.502;2022-11-04T07:11:24;9.10;99.90
13982;DHT22;7065;50.880;5.502;2022-11-04T07:13:50;9.10;99.90
13982;DHT22;7065;50.880;5.502;2022-11-04T07:16:17;9.10;99.90
13982;DHT22;7065;50.880;5.502;2022-11-04T07:18:43;9.20;99.90
13982;DHT22;7065;50.880;5.502;2022-11-04T07:21:09;9.20;99.90
13982;DHT22;7065;50.880;5.502;2022-11-04T07:23:35;9.20;99.90
13982;DHT22;7065;50.880;5.502;2022-11-04T07:26:02;9.20;99.90
13982;DHT22;7065;50.880;5.502;2022-11-04T07:28:28;9.20;99.90
13982;DHT22;7065;50.880;5.502;2022-11-04T07:30:55;9.20;99.90
13982;DHT22;7065;50.880;5.502;2022-11-04T07:33:22;9.10;99.90
13982;DHT22;7065;50.880;5.502;2022-11-04T07:35:47;9.20;99.90
13982;DHT22;7065;50.880;5.502;2022-11-04T07:38:13;9.10;99.90
13982;DHT22;7065;50.880;5.502;2022-11-04T07:40:39;9.20;99.90
13982;DHT22;7065;50.880;5.502;2022-11-04T07:43:05;9.20;99.90
13982;DHT22;7065;50.880;5.502;2022-11-04T07:45:32;9.20;99.90
13982;DHT22;7065;50.880;5.502;2022-11-04T07:47:57;9.20;99.90
13982;DHT22;7065;50.880;5.502;2022-11-04T07:50:23;9.30;99.90
13982;DHT22;7065;50.880;5.502;2022-11-04T07:52:49;9.30;99.90
13982;DHT22;7065;50.880;5.502;2022-11-04T07:55:18;9.30;99.90
13982;DHT22;7065;50.880;5.502;2022-11-04T07:57:45;9.40;99.90
13982;DHT22;7065;50.880;5.502;2022-11-04T08:00:12;9.40;99.90
13982;DHT22;7065;50.880;5.502;2022-11-04T08:02:39;9.50;99.90
13982;DHT22;7065;50.880;5.502;2022-11-04T08:05:05;9.50;99.90
13982;DHT22;7065;50.880;5.502;2022-11-04T08:07:31;9.60;99.90
13982;DHT22;7065;50.880;5.502;2022-11-04T08:09:57;9.60;99.90
13982;DHT22;7065;50.880;5.502;2022-11-04T08:12:23;9.70;99.90
13982;DHT22;7065;50.880;5.502;2022-11-04T08:14:49;9.70;99.90
13982;DHT22;7065;50.880;5.502;2022-11-04T08:17:15;9.70;99.90
13982;DHT22;7065;50.880;5.502;2022-11-04T08:19:41;9.80;99.90
13982;DHT22;7065;50.880;5.502;2022-11-04T08:22:08;9.80;99.90
13982;DHT22;7065;50.880;5.502;2022-11-04T08:24:34;9.80;99.90
13982;DHT22;7065;50.880;5.502;2022-11-04T08:27:00;9.90;99.90
13982;DHT22;7065;50.880;5.502;2022-11-04T08:29:25;9.90;99.90
13982;DHT22;7065;50.880;5.502;2022-11-04T08:31:51;9.90;99.90
13982;DHT22;7065;50.880;5.502;2022-11-04T08:34:18;10.00;99.90
13982;DHT22;7065;50.880;5.502;2022-11-04T08:36:44;10.00;99.90
13982;DHT22;7065;50.880;5.502;2022-11-04T08:39:11;10.00;99.90
13982;DHT22;7065;50.880;5.502;2022-11-04T08:41:39;10.10;99.90
13982;DHT22;7065;50.880;5.502;2022-11-04T08:44:06;10.10;99.90
13982;DHT22;7065;50.880;5.502;2022-11-04T08:46:37;10.10;99.90
13982;DHT22;7065;50.880;5.502;2022-11-04T08:49:04;10.10;99.90
13982;DHT22;7065;50.880;5.502;2022-11-04T08:51:32;10.10;99.90
13982;DHT22;7065;50.880;5.502;2022-11-04T08:53:58;10.20;99.90
13982;DHT22;7065;50.880;5.502;2022-11-04T08:56:30;10.20;99.90
13982;DHT22;7065;50.880;5.502;2022-11-04T08:58:57;10.30;99.90
13982;DHT22;7065;50.880;5.502;2022-11-04T09:01:25;10.30;99.90
13982;DHT22;7065;50.880;5.502;2022-11-04T09:03:51;10.40;99.90
13982;DHT22;7065;50.880;5.502;2022-11-04T09:06:21;10.40;99.90
13982;DHT22;7065;50.880;5.502;2022-11-04T09:08:47;10.40;99.90
13982;DHT22;7065;50.880;5.502;2022-11-04T09:11:14;10.40;99.90
13982;DHT22;7065;50.880;5.502;2022-11-04T09:13:42;10.40;99.90
13982;DHT22;7065;50.880;5.502;2022-11-04T09:16:09;10.50;99.90
13982;DHT22;7065;50.880;5.502;2022-11-04T09:18:36;10.50;99.90
13982;DHT22;7065;50.880;5.502;2022-11-04T09:21:03;10.50;99.90
13982;DHT22;7065;50.880;5.502;2022-11-04T09:23:29;10.50;99.90
13982;DHT22;7065;50.880;5.502;2022-11-04T09:25:56;10.50;99.90
13982;DHT22;7065;50.880;5.502;2022-11-04T09:28:23;10.50;99.90
13982;DHT22;7065;50.880;5.502;2022-11-04T09:30:49;10.50;99.90
13982;DHT22;7065;50.880;5.502;2022-11-04T09:33:15;10.40;99.90
13982;DHT22;7065;50.880;5.502;2022-11-04T09:35:41;10.40;99.90
13982;DHT22;7065;50.880;5.502;2022-11-04T09:38:07;10.40;99.90
13982;DHT22;7065;50.880;5.502;2022-11-04T09:40:35;10.40;99.90
13982;DHT22;7065;50.880;5.502;2022-11-04T09:45:52;10.40;99.90
13982;DHT22;7065;50.880;5.502;2022-11-04T09:51:01;10.60;99.90
13982;DHT22;7065;50.880;5.502;2022-11-04T09:53:41;10.70;99.90
13982;DHT22;7065;50.880;5.502;2022-11-04T09:56:17;10.70;99.90
13982;DHT22;7065;50.880;5.502;2022-11-04T09:58:44;10.80;99.90
13982;DHT22;7065;50.880;5.502;2022-11-04T10:04:07;10.80;99.90
13982;DHT22;7065;50.880;5.502;2022-11-04T10:17:45;10.80;99.90
13982;DHT22;7065;50.880;5.502;2022-11-04T10:23:32;11.00;99.90
13982;DHT22;7065;50.880;5.502;2022-11-04T10:26:50;11.00;99.90
13982;DHT22;7065;50.880;5.502;2022-11-04T10:31:46;11.20;99.90
13982;DHT22;7065;50.880;5.502;2022-11-04T10:34:36;11.30;99.90
13982;DHT22;7065;50.880;5.502;2022-11-04T10:37:03;11.40;99.90
13982;DHT22;7065;50.880;5.502;2022-11-04T10:39:33;11.50;99.90
13982;DHT22;7065;50.880;5.502;2022-11-04T10:42:00;11.60;99.90
13982;DHT22;7065;50.880;5.502;2022-11-04T10:44:31;11.80;99.90
13982;DHT22;7065;50.880;5.502;2022-11-04T10:47:20;11.90;99.90
13982;DHT22;7065;50.880;5.502;2022-11-04T10:50:00;12.00;99.90
13982;DHT22;7065;50.880;5.502;2022-11-04T10:52:27;12.00;99.90
13982;DHT22;7065;50.880;5.502;2022-11-04T10:54:53;12.00;99.90
13982;DHT22;7065;50.880;5.502;2022-11-04T10:57:21;12.00;99.90
13982;DHT22;7065;50.880;5.502;2022-11-04T10:59:59;12.10;99.90
13982;DHT22;7065;50.880;5.502;2022-11-04T11:07:45;12.30;99.90
13982;DHT22;7065;50.880;5.502;2022-11-04T11:10:28;12.40;99.90
13982;DHT22;7065;50.880;5.502;2022-11-04T11:13:01;12.40;99.90
13982;DHT22;7065;50.880;5.502;2022-11-04T11:18:13;12.30;99.90
13982;DHT22;7065;50.880;5.502;2022-11-04T11:20:41;12.10;99.90
13982;DHT22;7065;50.880;5.502;2022-11-04T11:23:34;12.10;99.90
13982;DHT22;7065;50.880;5.502;2022-11-04T11:26:01;12.00;99.90
13982;DHT22;7065;50.880;5.502;2022-11-04T11:28:28;12.10;99.90
13982;DHT22;7065;50.880;5.502;2022-11-04T11:30:57;12.20;99.90
13982;DHT22;7065;50.880;5.502;2022-11-04T11:33:34;12.20;99.90
13982;DHT22;7065;50.880;5.502;2022-11-04T11:36:13;12.30;99.90
13982;DHT22;7065;50.880;5.502;2022-11-04T11:38:59;12.50;99.90
13982;DHT22;7065;50.880;5.502;2022-11-04T11:41:29;12.80;99.90
13982;DHT22;7065;50.880;5.502;2022-11-04T11:44:05;13.00;99.90
13982;DHT22;7065;50.880;5.502;2022-11-04T11:46:33;13.10;99.90
13982;DHT22;7065;50.880;5.502;2022-11-04T11:49:01;13.00;99.90
13982;DHT22;7065;50.880;5.502;2022-11-04T11:51:34;12.90;99.90
13982;DHT22;7065;50.880;5.502;2022-11-04T11:54:21;12.90;99.90
13982;DHT22;7065;50.880;5.502;2022-11-04T11:56:56;13.00;99.90
13982;DHT22;7065;50.880;5.502;2022-11-04T12:04:40;13.10;99.90
13982;DHT22;7065;50.880;5.502;2022-11-04T12:26:44;13.00;99.90
13982;DHT22;7065;50.880;5.502;2022-11-04T12:34:54;12.80;99.90
13982;DHT22;7065;50.880;5.502;2022-11-04T12:40:28;12.70;99.90
13982;DHT22;7065;50.880;5.502;2022-11-04T12:48:12;12.70;99.90
13982;DHT22;7065;50.880;5.502;2022-11-04T12:53:37;12.70;99.90
13982;DHT22;7065;50.880;5.502;2022-11-04T12:56:09;12.70;99.90
13982;DHT22;7065;50.880;5.502;2022-11-04T12:58:43;12.70;99.90
13982;DHT22;7065;50.880;5.502;2022-11-04T13:01:41;12.80;99.90
13982;DHT22;7065;50.880;5.502;2022-11-04T13:04:12;12.80;99.90
13982;DHT22;7065;50.880;5.502;2022-11-04T13:06:48;12.80;99.90
13982;DHT22;7065;50.880;5.502;2022-11-04T13:09:35;12.80;99.90
13982;DHT22;7065;50.880;5.502;2022-11-04T13:12:10;12.90;99.90
13982;DHT22;7065;50.880;5.502;2022-11-04T13:17:14;12.80;99.90
13982;DHT22;7065;50.880;5.502;2022-11-04T13:19:48;12.80;99.90
13982;DHT22;7065;50.880;5.502;2022-11-04T13:22:35;12.80;99.90
13982;DHT22;7065;50.880;5.502;2022-11-04T13:25:31;12.80;99.90
13982;DHT22;7065;50.880;5.502;2022-11-04T13:27:58;12.70;99.90
13982;DHT22;7065;50.880;5.502;2022-11-04T13:31:02;12.70;99.90
13982;DHT22;7065;50.880;5.502;2022-11-04T13:33:52;12.80;99.90
13982;DHT22;7065;50.880;5.502;2022-11-04T13:36:29;12.80;99.90
13982;DHT22;7065;50.880;5.502;2022-11-04T13:39:06;12.70;99.90
13982;DHT22;7065;50.880;5.502;2022-11-04T13:41:41;12.70;99.90
13982;DHT22;7065;50.880;5.502;2022-11-04T13:44:35;12.70;99.90
13982;DHT22;7065;50.880;5.502;2022-11-04T13:47:04;12.70;99.90
13982;DHT22;7065;50.880;5.502;2022-11-04T13:49:32;12.70;99.90
13982;DHT22;7065;50.880;5.502;2022-11-04T13:52:06;12.60;99.90
13982;DHT22;7065;50.880;5.502;2022-11-04T13:54:42;12.70;99.90
13982;DHT22;7065;50.880;5.502;2022-11-04T13:57:16;12.70;99.90
13982;DHT22;7065;50.880;5.502;2022-11-04T14:00:07;12.60;99.90
13982;DHT22;7065;50.880;5.502;2022-11-04T14:18:46;11.50;99.90
13982;DHT22;7065;50.880;5.502;2022-11-04T14:21:23;11.20;99.90
13982;DHT22;7065;50.880;5.502;2022-11-04T14:23:52;10.90;99.90
13982;DHT22;7065;50.880;5.502;2022-11-04T14:26:27;10.90;99.90
13982;DHT22;7065;50.880;5.502;2022-11-04T14:31:48;10.70;99.90
13982;DHT22;7065;50.880;5.502;2022-11-04T14:34:30;10.70;99.90
13982;DHT22;7065;50.880;5.502;2022-11-04T14:37:06;10.70;99.90
13982;DHT22;7065;50.880;5.502;2022-11-04T14:39:41;10.70;99.90
13982;DHT22;7065;50.880;5.502;2022-11-04T14:42:11;10.80;99.90
13982;DHT22;7065;50.880;5.502;2022-11-04T14:44:47;10.80;99.90
13982;DHT22;7065;50.880;5.502;2022-11-04T14:47:25;10.70;99.90
13982;DHT22;7065;50.880;5.502;2022-11-04T14:52:35;10.70;99.90
13982;DHT22;7065;50.880;5.502;2022-11-04T14:57:44;10.70;99.90
13982;DHT22;7065;50.880;5.502;2022-11-04T15:03:05;10.70;99.90
13982;DHT22;7065;50.880;5.502;2022-11-04T15:05:32;10.70;99.90
13982;DHT22;7065;50.880;5.502;2022-11-04T15:10:48;10.70;99.90
13982;DHT22;7065;50.880;5.502;2022-11-04T15:13:19;10.70;99.90
13982;DHT22;7065;50.880;5.502;2022-11-04T15:15:45;10.60;99.90
13982;DHT22;7065;50.880;5.502;2022-11-04T15:18:18;10.60;99.90
13982;DHT22;7065;50.880;5.502;2022-11-04T15:21:04;10.60;99.90
13982;DHT22;7065;50.880;5.502;2022-11-04T15:23:50;10.60;99.90
13982;DHT22;7065;50.880;5.502;2022-11-04T15:26:29;10.60;99.90
13982;DHT22;7065;50.880;5.502;2022-11-04T15:28:59;10.60;99.90
13982;DHT22;7065;50.880;5.502;2022-11-04T15:31:27;10.60;99.90
13982;DHT22;7065;50.880;5.502;2022-11-04T15:33:56;10.60;99.90
13982;DHT22;7065;50.880;5.502;2022-11-04T15:36:32;10.60;99.90
13982;DHT22;7065;50.880;5.502;2022-11-04T15:39:04;10.60;99.90
13982;DHT22;7065;50.880;5.502;2022-11-04T15:41:32;10.60;99.90
13982;DHT22;7065;50.880;5.502;2022-11-04T15:44:23;10.60;99.90
13982;DHT22;7065;50.880;5.502;2022-11-04T15:46:55;10.60;99.90
13982;DHT22;7065;50.880;5.502;2022-11-04T15:49:26;10.60;99.90
13982;DHT22;7065;50.880;5.502;2022-11-04T15:51:58;10.60;99.90
13982;DHT22;7065;50.880;5.502;2022-11-04T15:54:28;10.60;99.90
13982;DHT22;7065;50.880;5.502;2022-11-04T15:56:58;10.50;99.90
13982;DHT22;7065;50.880;5.502;2022-11-04T15:59:30;10.50;99.90
13982;DHT22;7065;50.880;5.502;2022-11-04T16:01:56;10.40;99.90
13982;DHT22;7065;50.880;5.502;2022-11-04T16:04:25;10.40;99.90
13982;DHT22;7065;50.880;5.502;2022-11-04T16:07:21;10.30;99.90
13982;DHT22;7065;50.880;5.502;2022-11-04T16:09:49;10.20;99.90
13982;DHT22;7065;50.880;5.502;2022-11-04T16:12:25;10.20;99.90
13982;DHT22;7065;50.880;5.502;2022-11-04T16:14:54;10.20;99.90
13982;DHT22;7065;50.880;5.502;2022-11-04T16:17:20;10.20;99.90
13982;DHT22;7065;50.880;5.502;2022-11-04T16:19:55;10.20;99.90
13982;DHT22;7065;50.880;5.502;2022-11-04T16:22:33;10.20;99.90
13982;DHT22;7065;50.880;5.502;2022-11-04T16:25:02;10.20;99.90
13982;DHT22;7065;50.880;5.502;2022-11-04T16:27:31;10.30;99.90
13982;DHT22;7065;50.880;5.502;2022-11-04T16:30:06;10.20;99.90
13982;DHT22;7065;50.880;5.502;2022-11-04T16:32:41;10.30;99.90
13982;DHT22;7065;50.880;5.502;2022-11-04T16:37:39;10.30;99.90
13982;DHT22;7065;50.880;5.502;2022-11-04T16:40:05;10.30;99.90
13982;DHT22;7065;50.880;5.502;2022-11-04T16:42:32;10.30;99.90
13982;DHT22;7065;50.880;5.502;2022-11-04T16:45:00;10.30;99.90
13982;DHT22;7065;50.880;5.502;2022-11-04T16:47:27;10.20;99.90
13982;DHT22;7065;50.880;5.502;2022-11-04T16:50:01;10.10;99.90
13982;DHT22;7065;50.880;5.502;2022-11-04T16:52:27;10.00;99.90
13982;DHT22;7065;50.880;5.502;2022-11-04T16:54:53;10.00;99.90
13982;DHT22;7065;50.880;5.502;2022-11-04T16:57:23;9.80;99.90
13982;DHT22;7065;50.880;5.502;2022-11-04T16:59:49;9.80;99.90
13982;DHT22;7065;50.880;5.502;2022-11-04T17:04:50;9.60;99.90
13982;DHT22;7065;50.880;5.502;2022-11-04T17:07:15;9.50;99.90
13982;DHT22;7065;50.880;5.502;2022-11-04T17:09:41;9.50;99.90
13982;DHT22;7065;50.880;5.502;2022-11-04T17:12:07;9.40;99.90
13982;DHT22;7065;50.880;5.502;2022-11-04T17:14:32;9.40;99.90
13982;DHT22;7065;50.880;5.502;2022-11-04T17:16:59;9.40;99.90
13982;DHT22;7065;50.880;5.502;2022-11-04T17:19:25;9.40;99.90
13982;DHT22;7065;50.880;5.502;2022-11-04T17:21:50;9.40;99.90
13982;DHT22;7065;50.880;5.502;2022-11-04T17:24:16;9.40;99.90
13982;DHT22;7065;50.880;5.502;2022-11-04T17:26:42;9.40;99.90
13982;DHT22;7065;50.880;5.502;2022-11-04T17:29:07;9.30;99.90
13982;DHT22;7065;50.880;5.502;2022-11-04T17:31:35;9.30;99.90
13982;DHT22;7065;50.880;5.502;2022-11-04T17:34:00;9.30;99.90
13982;DHT22;7065;50.880;5.502;2022-11-04T17:36:26;9.30;99.90
13982;DHT22;7065;50.880;5.502;2022-11-04T17:38:52;9.30;99.90
13982;DHT22;7065;50.880;5.502;2022-11-04T17:41:18;9.30;99.90
13982;DHT22;7065;50.880;5.502;2022-11-04T17:44:02;9.20;99.90
13982;DHT22;7065;50.880;5.502;2022-11-04T17:46:31;9.20;99.90
13982;DHT22;7065;50.880;5.502;2022-11-04T17:49:00;9.20;99.90
13982;DHT22;7065;50.880;5.502;2022-11-04T17:51:27;9.20;99.90
13982;DHT22;7065;50.880;5.502;2022-11-04T17:53:52;9.20;99.90
13982;DHT22;7065;50.880;5.502;2022-11-04T17:56:21;9.10;99.90
13982;DHT22;7065;50.880;5.502;2022-11-04T17:58:47;9.10;99.90
13982;DHT22;7065;50.880;5.502;2022-11-04T18:01:15;9.10;99.90
13982;DHT22;7065;50.880;5.502;2022-11-04T18:03:42;9.00;99.90
13982;DHT22;7065;50.880;5.502;2022-11-04T18:06:08;9.00;99.90
13982;DHT22;7065;50.880;5.502;2022-11-04T18:08:35;9.00;99.90
13982;DHT22;7065;50.880;5.502;2022-11-04T18:11:04;9.10;99.90
13982;DHT22;7065;50.880;5.502;2022-11-04T18:13:30;9.10;99.90
13982;DHT22;7065;50.880;5.502;2022-11-04T18:15:56;9.10;99.90
13982;DHT22;7065;50.880;5.502;2022-11-04T18:18:21;9.10;99.90
13982;DHT22;7065;50.880;5.502;2022-11-04T18:20:48;9.10;99.90
13982;DHT22;7065;50.880;5.502;2022-11-04T18:23:13;9.10;99.90
13982;DHT22;7065;50.880;5.502;2022-11-04T18:25:40;9.10;99.90
13982;DHT22;7065;50.880;5.502;2022-11-04T18:28:08;9.20;99.90
13982;DHT22;7065;50.880;5.502;2022-11-04T18:30:34;9.20;99.90
13982;DHT22;7065;50.880;5.502;2022-11-04T18:33:00;9.20;99.90
13982;DHT22;7065;50.880;5.502;2022-11-04T18:35:26;9.30;99.90
13982;DHT22;7065;50.880;5.502;2022-11-04T18:37:51;9.30;99.90
13982;DHT22;7065;50.880;5.502;2022-11-04T18:40:17;9.40;99.90
13982;DHT22;7065;50.880;5.502;2022-11-04T18:42:43;9.40;99.90
13982;DHT22;7065;50.880;5.502;2022-11-04T18:45:09;9.40;99.90
13982;DHT22;7065;50.880;5.502;2022-11-04T18:47:34;9.40;99.90